createdAt,value
2019-05-06T00:02:04.559Z,94259.51
2019-05-06T00:12:08.235Z,94263.80
2019-05-06T00:22:11.391Z,94255.88
2019-05-06T00:32:15.072Z,94261.02
2019-05-06T00:42:37.811Z,94258.64
2019-05-06T00:52:41.173Z,94265.27
2019-05-06T01:02:44.170Z,94268.23
2019-05-06T01:13:11.862Z,94272.97
2019-05-06T01:23:14.849Z,94276.74
2019-05-06T01:33:17.823Z,94275.58
2019-05-06T01:43:25.778Z,94273.60
2019-05-06T01:53:28.760Z,94279.98
2019-05-06T02:03:31.752Z,94280.92
2019-05-06T02:13:34.944Z,94284.48
2019-05-06T02:23:41.781Z,94292.73
2019-05-06T02:34:11.778Z,94280.97
2019-05-06T02:44:14.738Z,94292.78
2019-05-06T02:54:17.691Z,94295.66
2019-05-06T03:04:23.452Z,94296.57
2019-05-06T03:14:25.549Z,94305.20
2019-05-06T03:24:50.654Z,94311.92
2019-05-06T03:35:16.443Z,94311.12
2019-05-06T03:45:04.119Z,94307.59
2019-05-06T03:55:07.711Z,94311.06
2019-05-06T04:05:13.458Z,94314.96
2019-05-06T04:15:16.719Z,94313.42
2019-05-06T04:25:58.565Z,94325.25
2019-05-06T04:36:03.748Z,94336.70
2019-05-06T04:46:06.474Z,94341.28
2019-05-06T04:56:09.436Z,94352.30
2019-05-06T05:06:13.611Z,94360.48
2019-05-06T05:16:42.029Z,94364.80
2019-05-06T05:26:47.109Z,94366.31
2019-05-06T05:36:52.037Z,94365.84
2019-05-06T05:46:55.276Z,94374.26
2019-05-06T05:56:58.983Z,94374.74
2019-05-06T06:07:02.722Z,94375.34
2019-05-06T06:17:17.987Z,94374.67
2019-05-06T06:27:22.325Z,94367.83
2019-05-06T06:37:57.239Z,94376.66
2019-05-06T06:48:00.250Z,94372.30
2019-05-06T06:58:22.880Z,94368.73
2019-05-06T07:08:36.675Z,94362.41
2019-05-06T07:18:33.146Z,94354.84
2019-05-06T07:28:35.786Z,94351.56
2019-05-06T07:38:48.753Z,94347.56
2019-05-06T07:48:51.967Z,94352.01
2019-05-06T07:59:06.651Z,94348.61
2019-05-06T08:09:10.110Z,94349.51
2019-05-06T08:19:13.101Z,94351.13
2019-05-06T08:29:16.119Z,94358.58
2019-05-06T08:39:19.248Z,94348.25
2019-05-06T08:49:22.597Z,94366.55
2019-05-06T08:59:25.891Z,94361.19
2019-05-06T09:09:28.885Z,94388.22
2019-05-06T09:19:33.132Z,94390.56
2019-05-06T09:29:43.024Z,94389.04
2019-05-06T09:39:47.213Z,94388.31
2019-05-06T09:49:50.166Z,94381.65
2019-05-06T09:59:53.112Z,94370.78
2019-05-06T10:09:56.085Z,94366.02
2019-05-06T10:19:59.146Z,94343.07
2019-05-06T10:30:05.625Z,94369.48
2019-05-06T10:40:18.172Z,94373.97
2019-05-06T10:50:22.950Z,94369.20
2019-05-06T11:00:26.185Z,94371.80
2019-05-06T11:10:38.070Z,94372.05
2019-05-06T11:20:34.056Z,94370.88
2019-05-06T11:30:55.144Z,94384.40
2019-05-06T11:40:58.119Z,94383.00
2019-05-06T11:51:03.019Z,94389.06
2019-05-06T12:01:13.396Z,94386.47
2019-05-06T12:11:16.072Z,94388.19
2019-05-06T12:21:19.519Z,94389.75
2019-05-06T12:31:23.782Z,94396.96
2019-05-06T12:41:26.774Z,94403.95
2019-05-06T12:51:32.107Z,94409.38
2019-05-06T13:01:34.945Z,94410.31
2019-05-06T13:11:38.071Z,94409.71
2019-05-06T13:21:42.248Z,94419.08
2019-05-06T13:31:45.992Z,94415.36
2019-05-06T13:41:49.073Z,94409.70
2019-05-06T13:52:06.227Z,94412.27
2019-05-06T14:02:27.413Z,94399.66
2019-05-06T14:12:32.967Z,94393.20
2019-05-06T14:22:35.533Z,94390.03
2019-05-06T14:32:38.524Z,94398.75
2019-05-06T14:42:42.340Z,94392.34
2019-05-06T14:52:45.486Z,94394.19
2019-05-06T15:02:48.745Z,94403.55
2019-05-06T15:12:53.412Z,94393.88
2019-05-06T15:22:56.662Z,94394.13
2019-05-06T15:32:59.694Z,94393.53
2019-05-06T15:43:02.838Z,94390.63
2019-05-06T15:53:05.827Z,94396.96
2019-05-06T16:03:08.897Z,94406.07
2019-05-06T16:13:12.923Z,94405.63
2019-05-06T16:23:34.604Z,94407.49
2019-05-06T16:33:37.586Z,94414.31
2019-05-06T16:43:42.726Z,94407.94
2019-05-06T16:53:46.007Z,94404.59
2019-05-06T17:04:03.190Z,94393.45
2019-05-06T17:14:06.694Z,94400.94
2019-05-06T17:24:09.695Z,94409.34
2019-05-06T17:34:15.919Z,94409.06
2019-05-06T17:44:22.756Z,94416.61
2019-05-06T17:54:26.102Z,94417.45
2019-05-06T18:04:29.276Z,94426.06
2019-05-06T18:14:33.213Z,94432.13
2019-05-06T18:24:36.476Z,94449.55
2019-05-06T18:34:39.507Z,94455.13
2019-05-06T18:44:42.871Z,94454.97
2019-05-06T18:54:45.860Z,94465.92
2019-05-06T19:05:08.447Z,94469.59
2019-05-06T19:15:12.721Z,94475.72
2019-05-06T19:25:16.115Z,94491.41
2019-05-06T19:35:19.119Z,94501.06
2019-05-06T19:45:22.507Z,94507.88
2019-05-06T19:55:26.831Z,94506.36
2019-05-06T20:05:46.107Z,94508.09
2019-05-06T20:15:49.133Z,94505.03
2019-05-06T20:25:52.160Z,94509.90
2019-05-06T20:35:55.135Z,94502.73
2019-05-06T20:45:58.173Z,94502.44
2019-05-06T20:56:02.823Z,94501.33
2019-05-06T21:06:05.993Z,94495.25
2019-05-06T21:16:12.918Z,94491.09
2019-05-06T21:26:15.687Z,94495.63
2019-05-06T21:36:18.668Z,94481.68
2019-05-06T21:46:21.643Z,94472.17
2019-05-06T21:56:24.604Z,94467.56
2019-05-06T22:06:27.990Z,94465.92
2019-05-06T22:16:32.356Z,94463.45
2019-05-06T22:26:35.476Z,94454.00
2019-05-06T22:36:38.465Z,94447.06
2019-05-06T22:46:42.600Z,94449.63
2019-05-06T22:56:45.579Z,94444.55
2019-05-06T23:06:48.710Z,94455.95
2019-05-06T23:16:52.168Z,94457.14
2019-05-06T23:26:55.756Z,94456.27
2019-05-06T23:37:27.103Z,94447.52
2019-05-06T23:48:25.292Z,94448.30
2019-05-06T23:58:29.167Z,94448.56
